createdAt,value
2023-05-23T00:04:39.784Z,66.13
2023-05-23T00:09:42.135Z,67.03
2023-05-23T00:14:45.775Z,67.16
2023-05-23T00:19:48.051Z,67.49
2023-05-23T00:24:50.595Z,66.60
2023-05-23T00:29:54.129Z,67.59
2023-05-23T00:34:56.490Z,66.86
2023-05-23T00:39:58.869Z,67.05
2023-05-23T00:45:02.402Z,68.91
2023-05-23T00:50:05.030Z,69.97
2023-05-23T00:55:08.356Z,69.89
2023-05-23T01:00:13.395Z,70.26
2023-05-23T01:05:16.911Z,70.38
2023-05-23T01:10:21.709Z,70.76
2023-05-23T01:15:32.465Z,71.14
2023-05-23T01:20:39.106Z,71.24
2023-05-23T01:26:13.984Z,71.58
2023-05-23T01:31:18.725Z,72.21
2023-05-23T01:36:21.273Z,69.21
2023-05-23T01:41:23.657Z,68.08
2023-05-23T01:46:28.764Z,68.43
2023-05-23T01:51:31.585Z,67.88
2023-05-23T01:56:34.293Z,66.71
2023-05-23T02:01:38.137Z,65.82
2023-05-23T02:06:40.303Z,66.17
2023-05-23T02:11:42.480Z,66.34
2023-05-23T02:16:46.074Z,68.64
2023-05-23T02:21:48.517Z,68.09
2023-05-23T02:26:50.669Z,68.82
2023-05-23T02:31:54.121Z,68.75
2023-05-23T02:36:55.939Z,68.63
2023-05-23T02:41:58.437Z,69.87
2023-05-23T02:47:02.025Z,67.54
2023-05-23T02:52:04.344Z,68.50
2023-05-23T02:57:06.787Z,67.95
2023-05-23T03:02:10.063Z,68.49
2023-05-23T03:07:20.582Z,69.35
2023-05-23T03:12:28.090Z,69.07
2023-05-23T03:17:31.645Z,71.54
2023-05-23T03:22:34.176Z,66.00
2023-05-23T03:27:36.292Z,65.52
2023-05-23T03:32:40.461Z,63.58
2023-05-23T03:37:42.719Z,65.04
2023-05-23T03:42:45.044Z,66.44
2023-05-23T03:47:48.706Z,64.26
2023-05-23T03:52:51.462Z,65.47
2023-05-23T03:57:53.521Z,63.89
2023-05-23T04:02:57.159Z,66.22
2023-05-23T04:07:59.444Z,68.92
2023-05-23T04:13:01.714Z,70.58
2023-05-23T04:18:05.347Z,72.96
2023-05-23T04:23:07.556Z,73.73
2023-05-23T04:28:09.804Z,74.60
2023-05-23T04:33:13.654Z,73.59
2023-05-23T04:38:15.706Z,75.41
2023-05-23T04:43:17.716Z,74.91
2023-05-23T04:48:21.167Z,74.45
2023-05-23T04:53:23.314Z,74.21
2023-05-23T04:58:26.321Z,75.14
2023-05-23T05:03:29.701Z,73.85
2023-05-23T05:08:31.625Z,75.15
2023-05-23T05:13:33.375Z,74.03
2023-05-23T05:18:37.361Z,75.96
2023-05-23T05:23:39.132Z,75.46
2023-05-23T05:28:40.968Z,73.99
2023-05-23T05:33:44.565Z,69.42
2023-05-23T05:38:46.848Z,70.14
2023-05-23T05:43:49.330Z,70.56
2023-05-23T05:48:52.665Z,70.55
2023-05-23T05:53:54.749Z,70.96
2023-05-23T05:58:56.604Z,70.70
2023-05-23T06:04:00.265Z,69.78
2023-05-23T06:09:02.280Z,68.95
2023-05-23T06:14:04.263Z,66.38
2023-05-23T06:19:07.459Z,65.40
2023-05-23T06:24:10.109Z,62.58
2023-05-23T06:29:12.803Z,61.45
2023-05-23T06:34:16.811Z,60.33
2023-05-23T06:39:19.020Z,59.65
2023-05-23T06:44:21.287Z,59.12
2023-05-23T06:49:25.304Z,59.59
2023-05-23T06:54:27.719Z,58.43
2023-05-23T06:59:29.779Z,59.52
2023-05-23T07:04:33.453Z,61.19
2023-05-23T07:09:35.714Z,62.85
2023-05-23T07:14:38.053Z,61.50
2023-05-23T07:19:41.194Z,62.38
2023-05-23T07:24:43.261Z,62.69
2023-05-23T07:29:45.461Z,62.46
2023-05-23T07:34:48.832Z,62.62
2023-05-23T07:39:51.106Z,61.41
2023-05-23T07:44:53.993Z,62.74
2023-05-23T07:49:57.534Z,62.36
2023-05-23T07:55:00.153Z,61.01
2023-05-23T08:00:02.336Z,61.56
2023-05-23T08:05:06.662Z,59.50
2023-05-23T08:10:09.576Z,59.65
2023-05-23T08:15:11.834Z,58.67
2023-05-23T08:20:15.351Z,59.92
2023-05-23T08:25:17.421Z,59.78
2023-05-23T08:30:19.576Z,61.28
2023-05-23T08:35:23.388Z,62.82
2023-05-23T08:40:27.167Z,65.05
2023-05-23T08:45:29.451Z,65.38
2023-05-23T08:50:32.820Z,66.16
2023-05-23T08:55:35.238Z,68.41
2023-05-23T09:00:37.215Z,69.79
2023-05-23T09:05:41.771Z,69.46
2023-05-23T09:10:43.889Z,68.93
2023-05-23T09:15:57.541Z,71.81
2023-05-23T09:21:01.155Z,73.19
2023-05-23T09:26:04.217Z,72.44
2023-05-23T09:31:08.109Z,72.37
2023-05-23T09:36:11.669Z,73.39
2023-05-23T09:41:13.635Z,71.40
2023-05-23T09:46:15.950Z,75.41
2023-05-23T09:51:21.989Z,79.69
2023-05-23T09:56:26.803Z,82.75
2023-05-23T10:01:32.535Z,83.69
2023-05-23T10:06:41.782Z,84.33
2023-05-23T10:12:16.417Z,82.46
2023-05-23T10:17:21.009Z,83.69
2023-05-23T10:22:24.979Z,83.43
2023-05-23T10:27:28.073Z,82.76
2023-05-23T10:32:31.641Z,81.51
2023-05-23T10:37:40.311Z,81.44
2023-05-23T10:42:49.870Z,82.69
2023-05-23T10:47:52.989Z,83.41
2023-05-23T10:52:56.258Z,84.15
2023-05-23T10:58:11.676Z,83.96
2023-05-23T11:03:14.338Z,83.06
2023-05-23T11:08:20.474Z,83.79
2023-05-23T11:13:23.436Z,83.30
2023-05-23T11:18:27.940Z,82.73
2023-05-23T11:23:42.169Z,78.98
2023-05-23T11:28:56.733Z,76.51
2023-05-23T11:33:59.127Z,75.98
2023-05-23T11:39:04.389Z,75.77
2023-05-23T11:44:12.041Z,75.83
2023-05-23T11:49:14.346Z,76.47
2023-05-23T11:54:17.730Z,78.53
2023-05-23T11:59:20.058Z,78.27
2023-05-23T12:04:22.801Z,79.73
2023-05-23T12:09:26.619Z,82.41
2023-05-23T12:14:29.525Z,82.40
2023-05-23T12:19:32.311Z,84.31
2023-05-23T12:24:35.733Z,84.34
2023-05-23T12:29:37.841Z,84.77
2023-05-23T12:34:41.693Z,85.84
2023-05-23T12:39:44.815Z,85.46
2023-05-23T12:44:51.651Z,85.35
2023-05-23T12:49:53.586Z,84.12
2023-05-23T12:54:56.773Z,83.58
2023-05-23T13:00:00.092Z,82.34
2023-05-23T13:05:02.197Z,82.70
2023-05-23T13:10:06.924Z,83.13
2023-05-23T13:15:10.045Z,83.42
2023-05-23T13:20:12.567Z,83.07
2023-05-23T13:25:16.158Z,82.82
2023-05-23T13:30:19.503Z,84.17
2023-05-23T13:35:22.888Z,85.23
2023-05-23T13:40:27.964Z,85.18
2023-05-23T13:45:31.254Z,85.18
2023-05-23T13:50:34.175Z,86.59
2023-05-23T13:55:38.925Z,86.51
2023-05-23T14:00:41.771Z,86.95
2023-05-23T14:05:45.093Z,86.13
2023-05-23T14:10:49.469Z,86.45
2023-05-23T14:15:52.292Z,88.25
2023-05-23T14:20:55.118Z,90.13
2023-05-23T14:26:00.014Z,91.70
2023-05-23T14:31:03.351Z,95.27
2023-05-23T14:36:07.182Z,98.44
2023-05-23T14:41:10.839Z,100.00
2023-05-23T14:46:13.067Z,100.00
2023-05-23T14:51:26.872Z,100.00
2023-05-23T14:56:38.434Z,99.99
2023-05-23T15:01:41.047Z,100.00
2023-05-23T15:06:43.463Z,99.87
2023-05-23T15:11:47.233Z,98.62
2023-05-23T15:16:49.509Z,96.15
2023-05-23T15:21:52.043Z,94.86
2023-05-23T15:26:56.819Z,90.80
2023-05-23T15:32:02.382Z,90.26
2023-05-23T15:37:04.642Z,89.60
2023-05-23T15:42:08.289Z,89.42
2023-05-23T15:47:10.510Z,89.77
2023-05-23T15:52:12.541Z,90.39
2023-05-23T15:57:15.874Z,91.52
2023-05-23T16:02:17.946Z,92.01
2023-05-23T16:07:19.806Z,92.99
2023-05-23T16:12:22.911Z,92.61
2023-05-23T16:17:25.033Z,93.06
2023-05-23T16:22:26.795Z,96.58
2023-05-23T16:27:30.371Z,97.23
2023-05-23T16:32:32.435Z,97.94
2023-05-23T16:37:34.187Z,98.53
2023-05-23T16:42:38.298Z,99.40
2023-05-23T16:47:40.522Z,100.00
2023-05-23T16:52:43.075Z,100.00
2023-05-23T16:57:46.191Z,100.00
2023-05-23T17:02:48.572Z,100.00
2023-05-23T17:07:50.388Z,100.00
2023-05-23T17:12:53.705Z,100.00
2023-05-23T17:17:56.114Z,100.00
2023-05-23T17:22:57.894Z,100.00
2023-05-23T17:28:01.534Z,100.00
2023-05-23T17:33:04.097Z,100.00
2023-05-23T17:38:06.586Z,100.00
2023-05-23T17:43:10.304Z,100.00
2023-05-23T17:48:12.093Z,100.00
2023-05-23T17:53:14.085Z,100.00
2023-05-23T17:58:17.423Z,100.00
2023-05-23T18:03:19.180Z,100.00
2023-05-23T18:08:20.938Z,100.00
2023-05-23T18:13:24.717Z,100.00
2023-05-23T18:18:26.898Z,99.96
2023-05-23T18:23:29.248Z,99.87
2023-05-23T18:28:32.816Z,100.00
2023-05-23T18:33:34.649Z,99.02
2023-05-23T18:38:36.800Z,99.33
2023-05-23T18:43:39.940Z,98.52
2023-05-23T18:48:42.689Z,98.25
2023-05-23T18:53:45.492Z,95.89
2023-05-23T18:58:50.313Z,95.56
2023-05-23T19:03:52.781Z,95.11
2023-05-23T19:08:54.971Z,96.04
2023-05-23T19:13:59.426Z,95.76
2023-05-23T19:19:01.656Z,95.60
2023-05-23T19:24:03.887Z,95.63
2023-05-23T19:29:07.533Z,95.28
2023-05-23T19:34:09.858Z,96.07
2023-05-23T19:39:12.016Z,96.09
2023-05-23T19:44:15.635Z,95.74
2023-05-23T19:49:17.780Z,95.11
2023-05-23T19:54:20.147Z,95.53
2023-05-23T19:59:23.559Z,89.37
2023-05-23T20:04:25.771Z,88.59
2023-05-23T20:09:27.464Z,86.40
2023-05-23T20:14:31.337Z,86.73
2023-05-23T20:19:33.489Z,84.24
2023-05-23T20:24:35.706Z,83.44
2023-05-23T20:29:39.241Z,85.32
2023-05-23T20:34:41.376Z,86.44
2023-05-23T20:39:43.129Z,87.23
2023-05-23T20:44:46.810Z,87.11
2023-05-23T20:49:48.853Z,85.84
2023-05-23T20:54:51.243Z,85.41
2023-05-23T20:59:54.713Z,85.95
2023-05-23T21:04:57.004Z,84.90
2023-05-23T21:09:59.227Z,84.82
2023-05-23T21:15:03.147Z,85.04
2023-05-23T21:20:06.445Z,82.90
2023-05-23T21:25:09.263Z,82.63
2023-05-23T21:30:13.817Z,81.31
2023-05-23T21:35:16.550Z,81.02
2023-05-23T21:40:19.204Z,81.06
2023-05-23T21:45:22.689Z,81.79
2023-05-23T21:50:24.588Z,81.94
2023-05-23T21:55:27.022Z,80.80
2023-05-23T22:00:30.551Z,80.84
2023-05-23T22:05:32.704Z,80.77
2023-05-23T22:10:35.007Z,81.00
2023-05-23T22:15:38.608Z,81.46
2023-05-23T22:20:40.775Z,81.35
2023-05-23T22:25:43.268Z,80.98
2023-05-23T22:30:46.802Z,80.78
2023-05-23T22:35:49.206Z,82.30
2023-05-23T22:40:51.332Z,82.15
2023-05-23T22:45:54.799Z,84.04
2023-05-23T22:50:56.815Z,84.12
2023-05-23T22:55:58.974Z,84.59
2023-05-23T23:01:02.190Z,84.15
2023-05-23T23:06:05.018Z,84.46
2023-05-23T23:11:06.787Z,84.34
2023-05-23T23:16:10.353Z,84.22
2023-05-23T23:21:12.317Z,84.35
2023-05-23T23:26:14.413Z,84.08
2023-05-23T23:31:17.971Z,84.31
2023-05-23T23:36:20.570Z,84.48
2023-05-23T23:41:22.732Z,84.49
2023-05-23T23:46:25.838Z,84.92
2023-05-23T23:51:27.874Z,84.64
2023-05-23T23:56:29.998Z,84.38
